sensor_id;sensor_type;location;lat;lon;timestamp;P1;durP1;ratioP1;P2;durP2;ratioP2
62880;SDS011;48969;49.934;8.596;2023-09-08T00:01:12;7.90;;;7.10;;
62880;SDS011;48969;49.934;8.596;2023-09-08T00:03:37;9.50;;;8.02;;
62880;SDS011;48969;49.934;8.596;2023-09-08T00:06:02;7.93;;;7.13;;
62880;SDS011;48969;49.934;8.596;2023-09-08T00:08:29;8.80;;;7.75;;
62880;SDS011;48969;49.934;8.596;2023-09-08T00:10:54;10.43;;;7.43;;
62880;SDS011;48969;49.934;8.596;2023-09-08T00:13:20;8.25;;;7.20;;
62880;SDS011;48969;49.934;8.596;2023-09-08T00:15:45;9.80;;;7.72;;
62880;SDS011;48969;49.934;8.596;2023-09-08T00:18:10;8.63;;;7.65;;
62880;SDS011;48969;49.934;8.596;2023-09-08T00:20:36;8.35;;;7.40;;
62880;SDS011;48969;49.934;8.596;2023-09-08T00:23:02;8.98;;;7.20;;
62880;SDS011;48969;49.934;8.596;2023-09-08T00:25:27;8.50;;;7.15;;
62880;SDS011;48969;49.934;8.596;2023-09-08T00:27:53;8.88;;;7.82;;
62880;SDS011;48969;49.934;8.596;2023-09-08T00:30:18;8.55;;;7.65;;
62880;SDS011;48969;49.934;8.596;2023-09-08T00:32:43;7.75;;;6.70;;
62880;SDS011;48969;49.934;8.596;2023-09-08T00:35:10;7.85;;;6.78;;
62880;SDS011;48969;49.934;8.596;2023-09-08T00:37:36;10.50;;;6.90;;
62880;SDS011;48969;49.934;8.596;2023-09-08T00:40:01;8.43;;;6.80;;
62880;SDS011;48969;49.934;8.596;2023-09-08T00:42:27;10.07;;;7.20;;
62880;SDS011;48969;49.934;8.596;2023-09-08T00:44:52;8.73;;;7.20;;
62880;SDS011;48969;49.934;8.596;2023-09-08T00:47:17;9.25;;;6.78;;
62880;SDS011;48969;49.934;8.596;2023-09-08T00:49:42;8.63;;;7.13;;
62880;SDS011;48969;49.934;8.596;2023-09-08T00:52:08;8.13;;;6.53;;
62880;SDS011;48969;49.934;8.596;2023-09-08T00:54:33;7.82;;;6.97;;
62880;SDS011;48969;49.934;8.596;2023-09-08T00:57:02;9.93;;;7.13;;
62880;SDS011;48969;49.934;8.596;2023-09-08T00:59:31;10.15;;;7.40;;
62880;SDS011;48969;49.934;8.596;2023-09-08T01:01:57;9.07;;;6.90;;
62880;SDS011;48969;49.934;8.596;2023-09-08T01:04:23;8.55;;;7.00;;
62880;SDS011;48969;49.934;8.596;2023-09-08T01:06:48;9.13;;;7.63;;
62880;SDS011;48969;49.934;8.596;2023-09-08T01:09:14;8.32;;;7.25;;
62880;SDS011;48969;49.934;8.596;2023-09-08T01:11:40;7.95;;;7.15;;
62880;SDS011;48969;49.934;8.596;2023-09-08T01:14:07;8.00;;;6.75;;
62880;SDS011;48969;49.934;8.596;2023-09-08T01:16:32;9.27;;;7.22;;
62880;SDS011;48969;49.934;8.596;2023-09-08T01:18:58;7.65;;;6.80;;
62880;SDS011;48969;49.934;8.596;2023-09-08T01:27:09;8.63;;;6.78;;
62880;SDS011;48969;49.934;8.596;2023-09-08T01:29:37;9.05;;;7.05;;
62880;SDS011;48969;49.934;8.596;2023-09-08T01:32:05;10.23;;;7.35;;
62880;SDS011;48969;49.934;8.596;2023-09-08T01:34:31;8.43;;;6.38;;
62880;SDS011;48969;49.934;8.596;2023-09-08T01:36:56;9.15;;;7.13;;
62880;SDS011;48969;49.934;8.596;2023-09-08T01:39:22;7.35;;;6.65;;
62880;SDS011;48969;49.934;8.596;2023-09-08T01:41:47;8.20;;;6.40;;
62880;SDS011;48969;49.934;8.596;2023-09-08T01:44:12;7.50;;;6.75;;
62880;SDS011;48969;49.934;8.596;2023-09-08T01:46:38;10.73;;;6.65;;
62880;SDS011;48969;49.934;8.596;2023-09-08T01:49:04;7.78;;;6.85;;
62880;SDS011;48969;49.934;8.596;2023-09-08T01:51:29;7.45;;;6.45;;
62880;SDS011;48969;49.934;8.596;2023-09-08T01:53:54;7.50;;;6.65;;
62880;SDS011;48969;49.934;8.596;2023-09-08T01:56:20;8.52;;;6.72;;
62880;SDS011;48969;49.934;8.596;2023-09-08T01:58:45;8.27;;;7.38;;
62880;SDS011;48969;49.934;8.596;2023-09-08T02:01:11;11.65;;;7.40;;
62880;SDS011;48969;49.934;8.596;2023-09-08T02:03:36;9.43;;;7.03;;
62880;SDS011;48969;49.934;8.596;2023-09-08T02:06:01;7.85;;;6.75;;
62880;SDS011;48969;49.934;8.596;2023-09-08T02:08:27;7.95;;;6.90;;
62880;SDS011;48969;49.934;8.596;2023-09-08T02:10:52;10.45;;;7.53;;
62880;SDS011;48969;49.934;8.596;2023-09-08T02:13:17;7.53;;;6.65;;
62880;SDS011;48969;49.934;8.596;2023-09-08T02:15:43;7.82;;;6.45;;
62880;SDS011;48969;49.934;8.596;2023-09-08T02:18:08;7.75;;;6.95;;
62880;SDS011;48969;49.934;8.596;2023-09-08T02:20:33;8.02;;;6.90;;
62880;SDS011;48969;49.934;8.596;2023-09-08T02:23:04;9.95;;;7.38;;
62880;SDS011;48969;49.934;8.596;2023-09-08T02:25:30;7.68;;;6.82;;
62880;SDS011;48969;49.934;8.596;2023-09-08T02:27:56;7.78;;;6.97;;
62880;SDS011;48969;49.934;8.596;2023-09-08T02:30:21;7.72;;;6.93;;
62880;SDS011;48969;49.934;8.596;2023-09-08T02:32:46;8.73;;;7.00;;
62880;SDS011;48969;49.934;8.596;2023-09-08T02:35:12;8.85;;;6.80;;
62880;SDS011;48969;49.934;8.596;2023-09-08T02:37:37;8.85;;;7.10;;
62880;SDS011;48969;49.934;8.596;2023-09-08T02:40:02;8.38;;;6.90;;
62880;SDS011;48969;49.934;8.596;2023-09-08T02:42:28;7.95;;;7.00;;
62880;SDS011;48969;49.934;8.596;2023-09-08T02:44:54;7.53;;;6.25;;
62880;SDS011;48969;49.934;8.596;2023-09-08T02:47:19;7.40;;;6.40;;
62880;SDS011;48969;49.934;8.596;2023-09-08T02:49:44;7.97;;;6.90;;
62880;SDS011;48969;49.934;8.596;2023-09-08T02:52:10;7.30;;;6.60;;
62880;SDS011;48969;49.934;8.596;2023-09-08T02:54:35;6.95;;;6.18;;
62880;SDS011;48969;49.934;8.596;2023-09-08T03:00:22;7.30;;;6.35;;
62880;SDS011;48969;49.934;8.596;2023-09-08T03:02:48;8.55;;;7.10;;
62880;SDS011;48969;49.934;8.596;2023-09-08T03:05:13;10.48;;;7.45;;
62880;SDS011;48969;49.934;8.596;2023-09-08T03:07:38;8.13;;;7.15;;
62880;SDS011;48969;49.934;8.596;2023-09-08T03:10:04;9.60;;;7.55;;
62880;SDS011;48969;49.934;8.596;2023-09-08T03:12:30;8.45;;;7.38;;
62880;SDS011;48969;49.934;8.596;2023-09-08T03:14:55;9.00;;;7.97;;
62880;SDS011;48969;49.934;8.596;2023-09-08T03:17:21;9.05;;;7.28;;
62880;SDS011;48969;49.934;8.596;2023-09-08T03:19:46;8.55;;;7.63;;
62880;SDS011;48969;49.934;8.596;2023-09-08T03:22:11;7.65;;;6.72;;
62880;SDS011;48969;49.934;8.596;2023-09-08T03:24:37;7.97;;;7.07;;
62880;SDS011;48969;49.934;8.596;2023-09-08T03:27:02;9.05;;;7.60;;
62880;SDS011;48969;49.934;8.596;2023-09-08T03:29:27;11.18;;;8.00;;
62880;SDS011;48969;49.934;8.596;2023-09-08T03:31:53;8.30;;;7.28;;
62880;SDS011;48969;49.934;8.596;2023-09-08T03:34:18;8.68;;;7.65;;
62880;SDS011;48969;49.934;8.596;2023-09-08T03:36:45;8.45;;;7.55;;
62880;SDS011;48969;49.934;8.596;2023-09-08T03:39:10;7.95;;;7.15;;
62880;SDS011;48969;49.934;8.596;2023-09-08T03:41:36;8.35;;;7.15;;
62880;SDS011;48969;49.934;8.596;2023-09-08T03:44:01;8.88;;;6.97;;
62880;SDS011;48969;49.934;8.596;2023-09-08T03:46:26;8.40;;;7.40;;
62880;SDS011;48969;49.934;8.596;2023-09-08T03:48:52;9.35;;;7.40;;
62880;SDS011;48969;49.934;8.596;2023-09-08T03:51:19;9.02;;;7.50;;
62880;SDS011;48969;49.934;8.596;2023-09-08T03:53:44;8.95;;;7.90;;
62880;SDS011;48969;49.934;8.596;2023-09-08T03:56:10;10.98;;;8.05;;
62880;SDS011;48969;49.934;8.596;2023-09-08T03:58:35;9.05;;;7.97;;
62880;SDS011;48969;49.934;8.596;2023-09-08T04:01:00;10.20;;;7.60;;
62880;SDS011;48969;49.934;8.596;2023-09-08T04:03:26;9.27;;;7.57;;
62880;SDS011;48969;49.934;8.596;2023-09-08T04:05:51;9.05;;;7.88;;
62880;SDS011;48969;49.934;8.596;2023-09-08T04:08:16;9.15;;;8.20;;
62880;SDS011;48969;49.934;8.596;2023-09-08T04:10:41;9.35;;;7.82;;
62880;SDS011;48969;49.934;8.596;2023-09-08T04:13:07;8.32;;;7.10;;
62880;SDS011;48969;49.934;8.596;2023-09-08T04:15:32;8.80;;;7.90;;
62880;SDS011;48969;49.934;8.596;2023-09-08T04:17:57;8.07;;;7.28;;
62880;SDS011;48969;49.934;8.596;2023-09-08T04:20:23;9.70;;;7.65;;
62880;SDS011;48969;49.934;8.596;2023-09-08T04:22:48;9.48;;;8.48;;
62880;SDS011;48969;49.934;8.596;2023-09-08T04:25:13;8.88;;;7.65;;
62880;SDS011;48969;49.934;8.596;2023-09-08T04:27:39;10.63;;;8.02;;
62880;SDS011;48969;49.934;8.596;2023-09-08T04:30:05;8.98;;;7.65;;
62880;SDS011;48969;49.934;8.596;2023-09-08T04:32:31;8.07;;;7.28;;
62880;SDS011;48969;49.934;8.596;2023-09-08T04:34:57;10.10;;;7.90;;
62880;SDS011;48969;49.934;8.596;2023-09-08T04:37:22;8.02;;;7.20;;
62880;SDS011;48969;49.934;8.596;2023-09-08T04:39:47;8.43;;;7.47;;
62880;SDS011;48969;49.934;8.596;2023-09-08T04:42:20;9.10;;;8.02;;
62880;SDS011;48969;49.934;8.596;2023-09-08T04:44:45;8.40;;;7.13;;
62880;SDS011;48969;49.934;8.596;2023-09-08T04:47:11;8.45;;;7.55;;
62880;SDS011;48969;49.934;8.596;2023-09-08T04:49:36;8.27;;;7.25;;
62880;SDS011;48969;49.934;8.596;2023-09-08T04:52:02;9.00;;;6.47;;
62880;SDS011;48969;49.934;8.596;2023-09-08T04:54:28;7.80;;;6.82;;
62880;SDS011;48969;49.934;8.596;2023-09-08T04:56:53;9.10;;;7.45;;
62880;SDS011;48969;49.934;8.596;2023-09-08T04:59:19;8.80;;;7.47;;
62880;SDS011;48969;49.934;8.596;2023-09-08T05:01:45;8.82;;;7.43;;
62880;SDS011;48969;49.934;8.596;2023-09-08T05:04:10;10.43;;;7.38;;
62880;SDS011;48969;49.934;8.596;2023-09-08T05:06:36;8.10;;;7.30;;
62880;SDS011;48969;49.934;8.596;2023-09-08T05:09:02;8.32;;;7.35;;
62880;SDS011;48969;49.934;8.596;2023-09-08T05:11:27;9.23;;;6.93;;
62880;SDS011;48969;49.934;8.596;2023-09-08T05:13:53;7.60;;;6.80;;
62880;SDS011;48969;49.934;8.596;2023-09-08T05:16:18;9.15;;;7.13;;
62880;SDS011;48969;49.934;8.596;2023-09-08T05:18:51;8.30;;;6.85;;
62880;SDS011;48969;49.934;8.596;2023-09-08T05:21:16;9.23;;;7.40;;
62880;SDS011;48969;49.934;8.596;2023-09-08T05:23:42;7.93;;;6.65;;
62880;SDS011;48969;49.934;8.596;2023-09-08T05:26:07;10.75;;;7.40;;
62880;SDS011;48969;49.934;8.596;2023-09-08T05:28:32;8.15;;;7.30;;
62880;SDS011;48969;49.934;8.596;2023-09-08T05:30:58;8.05;;;6.90;;
62880;SDS011;48969;49.934;8.596;2023-09-08T05:33:23;7.70;;;6.40;;
62880;SDS011;48969;49.934;8.596;2023-09-08T05:35:48;7.53;;;6.65;;
62880;SDS011;48969;49.934;8.596;2023-09-08T05:38:14;8.95;;;6.57;;
62880;SDS011;48969;49.934;8.596;2023-09-08T05:40:39;8.82;;;7.20;;
62880;SDS011;48969;49.934;8.596;2023-09-08T05:43:05;9.73;;;6.45;;
62880;SDS011;48969;49.934;8.596;2023-09-08T05:45:33;8.35;;;6.65;;
62880;SDS011;48969;49.934;8.596;2023-09-08T05:47:59;7.40;;;6.53;;
62880;SDS011;48969;49.934;8.596;2023-09-08T05:50:25;7.47;;;6.35;;
62880;SDS011;48969;49.934;8.596;2023-09-08T05:52:51;8.43;;;6.63;;
62880;SDS011;48969;49.934;8.596;2023-09-08T05:55:16;10.07;;;6.68;;
62880;SDS011;48969;49.934;8.596;2023-09-08T05:57:42;7.60;;;6.80;;
62880;SDS011;48969;49.934;8.596;2023-09-08T06:00:07;13.30;;;7.82;;
62880;SDS011;48969;49.934;8.596;2023-09-08T06:02:33;9.88;;;7.18;;
62880;SDS011;48969;49.934;8.596;2023-09-08T06:04:59;10.00;;;8.77;;
62880;SDS011;48969;49.934;8.596;2023-09-08T06:07:24;9.90;;;7.43;;
62880;SDS011;48969;49.934;8.596;2023-09-08T06:09:49;8.98;;;6.90;;
62880;SDS011;48969;49.934;8.596;2023-09-08T06:12:15;9.02;;;7.20;;
62880;SDS011;48969;49.934;8.596;2023-09-08T06:14:40;9.98;;;7.80;;
62880;SDS011;48969;49.934;8.596;2023-09-08T06:17:05;8.45;;;6.95;;
62880;SDS011;48969;49.934;8.596;2023-09-08T06:19:31;10.13;;;7.10;;
62880;SDS011;48969;49.934;8.596;2023-09-08T06:21:56;11.85;;;7.05;;
62880;SDS011;48969;49.934;8.596;2023-09-08T06:24:21;7.68;;;6.63;;
62880;SDS011;48969;49.934;8.596;2023-09-08T06:26:46;7.97;;;6.65;;
62880;SDS011;48969;49.934;8.596;2023-09-08T06:29:12;9.57;;;6.53;;
62880;SDS011;48969;49.934;8.596;2023-09-08T06:31:37;6.60;;;5.88;;
62880;SDS011;48969;49.934;8.596;2023-09-08T06:34:02;7.82;;;6.80;;
62880;SDS011;48969;49.934;8.596;2023-09-08T06:36:28;9.07;;;6.05;;
62880;SDS011;48969;49.934;8.596;2023-09-08T06:38:53;7.55;;;6.35;;
62880;SDS011;48969;49.934;8.596;2023-09-08T06:41:18;8.18;;;6.43;;
62880;SDS011;48969;49.934;8.596;2023-09-08T06:43:44;7.35;;;5.65;;
62880;SDS011;48969;49.934;8.596;2023-09-08T06:46:09;8.05;;;6.40;;
62880;SDS011;48969;49.934;8.596;2023-09-08T06:48:35;7.82;;;6.60;;
62880;SDS011;48969;49.934;8.596;2023-09-08T06:51:00;8.87;;;6.27;;
62880;SDS011;48969;49.934;8.596;2023-09-08T06:53:25;7.90;;;5.75;;
62880;SDS011;48969;49.934;8.596;2023-09-08T06:55:51;7.68;;;5.80;;
62880;SDS011;48969;49.934;8.596;2023-09-08T06:58:16;9.02;;;6.18;;
62880;SDS011;48969;49.934;8.596;2023-09-08T07:00:41;8.18;;;6.03;;
62880;SDS011;48969;49.934;8.596;2023-09-08T07:03:07;6.05;;;5.45;;
62880;SDS011;48969;49.934;8.596;2023-09-08T07:05:33;8.02;;;5.88;;
62880;SDS011;48969;49.934;8.596;2023-09-08T07:07:59;6.30;;;5.40;;
62880;SDS011;48969;49.934;8.596;2023-09-08T07:10:24;7.50;;;5.70;;
62880;SDS011;48969;49.934;8.596;2023-09-08T07:12:50;6.78;;;5.10;;
62880;SDS011;48969;49.934;8.596;2023-09-08T07:15:15;6.78;;;4.75;;
62880;SDS011;48969;49.934;8.596;2023-09-08T07:17:41;6.18;;;5.57;;
62880;SDS011;48969;49.934;8.596;2023-09-08T07:20:07;7.53;;;5.40;;
62880;SDS011;48969;49.934;8.596;2023-09-08T07:22:34;7.00;;;5.65;;
62880;SDS011;48969;49.934;8.596;2023-09-08T07:24:59;7.45;;;5.95;;
62880;SDS011;48969;49.934;8.596;2023-09-08T07:27:25;6.28;;;5.28;;
62880;SDS011;48969;49.934;8.596;2023-09-08T07:29:50;6.38;;;5.28;;
62880;SDS011;48969;49.934;8.596;2023-09-08T07:32:16;7.07;;;5.65;;
62880;SDS011;48969;49.934;8.596;2023-09-08T07:34:41;6.13;;;5.30;;
62880;SDS011;48969;49.934;8.596;2023-09-08T07:37:07;5.80;;;5.20;;
62880;SDS011;48969;49.934;8.596;2023-09-08T07:39:32;7.18;;;5.40;;
62880;SDS011;48969;49.934;8.596;2023-09-08T07:41:58;7.18;;;5.43;;
62880;SDS011;48969;49.934;8.596;2023-09-08T07:44:23;5.88;;;5.05;;
62880;SDS011;48969;49.934;8.596;2023-09-08T07:46:49;6.85;;;5.68;;
62880;SDS011;48969;49.934;8.596;2023-09-08T07:49:16;6.53;;;5.15;;
62880;SDS011;48969;49.934;8.596;2023-09-08T07:51:44;6.82;;;5.32;;
62880;SDS011;48969;49.934;8.596;2023-09-08T07:54:10;7.45;;;5.95;;
62880;SDS011;48969;49.934;8.596;2023-09-08T07:56:35;9.27;;;5.78;;
62880;SDS011;48969;49.934;8.596;2023-09-08T07:59:01;6.18;;;5.50;;
62880;SDS011;48969;49.934;8.596;2023-09-08T08:01:26;7.88;;;5.70;;
62880;SDS011;48969;49.934;8.596;2023-09-08T08:03:51;6.63;;;5.72;;
62880;SDS011;48969;49.934;8.596;2023-09-08T08:06:17;6.45;;;5.18;;
62880;SDS011;48969;49.934;8.596;2023-09-08T08:08:42;5.80;;;4.95;;
62880;SDS011;48969;49.934;8.596;2023-09-08T08:11:08;7.53;;;5.70;;
62880;SDS011;48969;49.934;8.596;2023-09-08T08:13:35;6.05;;;5.03;;
62880;SDS011;48969;49.934;8.596;2023-09-08T08:16:01;7.63;;;5.70;;
62880;SDS011;48969;49.934;8.596;2023-09-08T08:18:26;6.85;;;5.45;;
62880;SDS011;48969;49.934;8.596;2023-09-08T08:20:51;6.75;;;5.32;;
62880;SDS011;48969;49.934;8.596;2023-09-08T08:23:16;5.20;;;4.70;;
62880;SDS011;48969;49.934;8.596;2023-09-08T08:25:42;6.05;;;5.25;;
62880;SDS011;48969;49.934;8.596;2023-09-08T08:28:07;5.25;;;4.75;;
62880;SDS011;48969;49.934;8.596;2023-09-08T08:30:32;5.82;;;4.82;;
62880;SDS011;48969;49.934;8.596;2023-09-08T08:32:58;6.70;;;5.85;;
62880;SDS011;48969;49.934;8.596;2023-09-08T08:35:23;8.30;;;5.45;;
62880;SDS011;48969;49.934;8.596;2023-09-08T08:37:51;7.13;;;5.53;;
62880;SDS011;48969;49.934;8.596;2023-09-08T08:40:16;6.40;;;4.50;;
62880;SDS011;48969;49.934;8.596;2023-09-08T08:42:41;6.75;;;5.55;;
62880;SDS011;48969;49.934;8.596;2023-09-08T08:45:07;5.88;;;5.28;;
62880;SDS011;48969;49.934;8.596;2023-09-08T08:47:33;6.57;;;5.43;;
62880;SDS011;48969;49.934;8.596;2023-09-08T08:49:59;6.38;;;5.30;;
62880;SDS011;48969;49.934;8.596;2023-09-08T08:52:28;5.68;;;5.18;;
62880;SDS011;48969;49.934;8.596;2023-09-08T08:54:54;7.68;;;5.53;;
62880;SDS011;48969;49.934;8.596;2023-09-08T08:57:20;5.70;;;5.05;;
62880;SDS011;48969;49.934;8.596;2023-09-08T08:59:46;8.05;;;5.40;;
62880;SDS011;48969;49.934;8.596;2023-09-08T09:02:13;7.75;;;5.65;;
62880;SDS011;48969;49.934;8.596;2023-09-08T09:04:39;6.97;;;5.50;;
62880;SDS011;48969;49.934;8.596;2023-09-08T09:07:06;6.43;;;4.95;;
62880;SDS011;48969;49.934;8.596;2023-09-08T09:09:32;5.82;;;4.95;;
62880;SDS011;48969;49.934;8.596;2023-09-08T09:11:58;7.55;;;5.05;;
62880;SDS011;48969;49.934;8.596;2023-09-08T09:14:23;5.70;;;5.07;;
62880;SDS011;48969;49.934;8.596;2023-09-08T09:16:49;6.68;;;5.15;;
62880;SDS011;48969;49.934;8.596;2023-09-08T09:19:18;6.35;;;5.13;;
62880;SDS011;48969;49.934;8.596;2023-09-08T09:21:50;7.78;;;4.97;;
62880;SDS011;48969;49.934;8.596;2023-09-08T09:24:16;8.23;;;5.25;;
62880;SDS011;48969;49.934;8.596;2023-09-08T09:26:52;6.35;;;5.30;;
62880;SDS011;48969;49.934;8.596;2023-09-08T09:29:18;6.93;;;5.57;;
62880;SDS011;48969;49.934;8.596;2023-09-08T09:31:50;7.60;;;5.43;;
62880;SDS011;48969;49.934;8.596;2023-09-08T09:34:17;6.55;;;5.47;;
62880;SDS011;48969;49.934;8.596;2023-09-08T09:36:43;6.45;;;4.85;;
62880;SDS011;48969;49.934;8.596;2023-09-08T09:39:10;6.32;;;5.13;;
62880;SDS011;48969;49.934;8.596;2023-09-08T09:41:35;6.70;;;4.75;;
62880;SDS011;48969;49.934;8.596;2023-09-08T09:44:01;6.85;;;5.32;;
62880;SDS011;48969;49.934;8.596;2023-09-08T09:46:29;6.20;;;4.95;;
62880;SDS011;48969;49.934;8.596;2023-09-08T09:48:54;5.78;;;4.97;;
62880;SDS011;48969;49.934;8.596;2023-09-08T09:51:21;5.25;;;4.72;;
62880;SDS011;48969;49.934;8.596;2023-09-08T09:53:47;6.30;;;5.00;;
62880;SDS011;48969;49.934;8.596;2023-09-08T09:56:14;7.97;;;4.90;;
62880;SDS011;48969;49.934;8.596;2023-09-08T09:58:42;5.70;;;4.55;;
62880;SDS011;48969;49.934;8.596;2023-09-08T10:01:08;5.72;;;4.88;;
62880;SDS011;48969;49.934;8.596;2023-09-08T10:03:39;6.65;;;4.93;;
62880;SDS011;48969;49.934;8.596;2023-09-08T10:06:05;6.93;;;4.90;;
62880;SDS011;48969;49.934;8.596;2023-09-08T10:08:31;5.50;;;4.88;;
62880;SDS011;48969;49.934;8.596;2023-09-08T10:11:01;6.93;;;5.03;;
62880;SDS011;48969;49.934;8.596;2023-09-08T10:13:31;6.00;;;4.80;;
62880;SDS011;48969;49.934;8.596;2023-09-08T10:16:03;5.30;;;4.45;;
62880;SDS011;48969;49.934;8.596;2023-09-08T10:18:30;6.07;;;4.95;;
62880;SDS011;48969;49.934;8.596;2023-09-08T10:20:59;6.10;;;4.43;;
62880;SDS011;48969;49.934;8.596;2023-09-08T10:23:34;6.05;;;4.60;;
62880;SDS011;48969;49.934;8.596;2023-09-08T10:26:02;5.32;;;4.80;;
62880;SDS011;48969;49.934;8.596;2023-09-08T10:28:31;6.10;;;4.43;;
62880;SDS011;48969;49.934;8.596;2023-09-08T10:30:57;6.50;;;5.18;;
62880;SDS011;48969;49.934;8.596;2023-09-08T10:33:23;6.63;;;4.70;;
62880;SDS011;48969;49.934;8.596;2023-09-08T10:35:50;6.43;;;4.70;;
62880;SDS011;48969;49.934;8.596;2023-09-08T10:38:25;6.20;;;4.70;;
62880;SDS011;48969;49.934;8.596;2023-09-08T10:46:10;5.55;;;4.65;;
62880;SDS011;48969;49.934;8.596;2023-09-08T10:48:42;5.15;;;4.65;;
62880;SDS011;48969;49.934;8.596;2023-09-08T10:51:12;5.95;;;4.88;;
62880;SDS011;48969;49.934;8.596;2023-09-08T10:53:39;6.60;;;5.10;;
62880;SDS011;48969;49.934;8.596;2023-09-08T10:56:04;4.85;;;4.35;;
62880;SDS011;48969;49.934;8.596;2023-09-08T10:58:31;4.68;;;4.18;;
62880;SDS011;48969;49.934;8.596;2023-09-08T11:00:59;5.80;;;4.57;;
62880;SDS011;48969;49.934;8.596;2023-09-08T11:06:03;5.90;;;5.05;;
62880;SDS011;48969;49.934;8.596;2023-09-08T11:08:29;5.35;;;4.28;;
62880;SDS011;48969;49.934;8.596;2023-09-08T11:10:55;6.40;;;4.57;;
62880;SDS011;48969;49.934;8.596;2023-09-08T11:13:21;5.85;;;4.38;;
62880;SDS011;48969;49.934;8.596;2023-09-08T11:15:47;6.15;;;4.95;;
62880;SDS011;48969;49.934;8.596;2023-09-08T11:18:12;5.03;;;3.92;;
62880;SDS011;48969;49.934;8.596;2023-09-08T11:20:38;6.40;;;4.85;;
62880;SDS011;48969;49.934;8.596;2023-09-08T11:23:03;6.90;;;4.90;;
62880;SDS011;48969;49.934;8.596;2023-09-08T11:25:30;6.05;;;4.70;;
62880;SDS011;48969;49.934;8.596;2023-09-08T11:27:57;4.78;;;4.22;;
62880;SDS011;48969;49.934;8.596;2023-09-08T11:30:23;6.22;;;4.50;;
62880;SDS011;48969;49.934;8.596;2023-09-08T11:32:49;5.15;;;4.45;;
62880;SDS011;48969;49.934;8.596;2023-09-08T11:35:16;6.15;;;4.65;;
62880;SDS011;48969;49.934;8.596;2023-09-08T11:37:41;5.45;;;4.47;;
62880;SDS011;48969;49.934;8.596;2023-09-08T11:40:07;5.10;;;4.60;;
62880;SDS011;48969;49.934;8.596;2023-09-08T11:42:34;5.70;;;4.20;;
62880;SDS011;48969;49.934;8.596;2023-09-08T11:45:00;5.15;;;4.32;;
62880;SDS011;48969;49.934;8.596;2023-09-08T11:47:25;5.13;;;4.18;;
62880;SDS011;48969;49.934;8.596;2023-09-08T11:49:52;5.60;;;4.50;;
62880;SDS011;48969;49.934;8.596;2023-09-08T11:52:17;4.97;;;4.43;;
62880;SDS011;48969;49.934;8.596;2023-09-08T11:54:42;4.85;;;4.25;;
62880;SDS011;48969;49.934;8.596;2023-09-08T11:57:08;5.55;;;4.22;;
62880;SDS011;48969;49.934;8.596;2023-09-08T11:59:36;7.38;;;4.60;;
62880;SDS011;48969;49.934;8.596;2023-09-08T12:02:03;4.93;;;4.43;;
62880;SDS011;48969;49.934;8.596;2023-09-08T12:04:28;5.10;;;4.00;;
62880;SDS011;48969;49.934;8.596;2023-09-08T12:06:54;5.15;;;4.20;;
62880;SDS011;48969;49.934;8.596;2023-09-08T12:09:22;4.63;;;4.13;;
62880;SDS011;48969;49.934;8.596;2023-09-08T12:11:48;5.53;;;4.78;;
62880;SDS011;48969;49.934;8.596;2023-09-08T12:14:14;5.28;;;4.20;;
62880;SDS011;48969;49.934;8.596;2023-09-08T12:16:41;6.53;;;4.32;;
62880;SDS011;48969;49.934;8.596;2023-09-08T12:19:07;5.70;;;4.45;;
62880;SDS011;48969;49.934;8.596;2023-09-08T12:21:53;4.93;;;4.35;;
62880;SDS011;48969;49.934;8.596;2023-09-08T12:24:20;5.80;;;4.70;;
62880;SDS011;48969;49.934;8.596;2023-09-08T12:27:24;5.35;;;4.40;;
62880;SDS011;48969;49.934;8.596;2023-09-08T12:29:57;5.55;;;4.95;;
62880;SDS011;48969;49.934;8.596;2023-09-08T12:32:26;5.45;;;4.30;;
62880;SDS011;48969;49.934;8.596;2023-09-08T12:34:53;5.82;;;4.20;;
62880;SDS011;48969;49.934;8.596;2023-09-08T12:37:22;7.18;;;4.85;;
62880;SDS011;48969;49.934;8.596;2023-09-08T12:39:49;5.22;;;4.47;;
62880;SDS011;48969;49.934;8.596;2023-09-08T12:42:14;6.05;;;4.43;;
62880;SDS011;48969;49.934;8.596;2023-09-08T12:44:40;4.72;;;4.25;;
62880;SDS011;48969;49.934;8.596;2023-09-08T12:47:06;5.63;;;4.22;;
62880;SDS011;48969;49.934;8.596;2023-09-08T12:49:31;5.55;;;4.55;;
62880;SDS011;48969;49.934;8.596;2023-09-08T12:51:56;5.93;;;4.70;;
62880;SDS011;48969;49.934;8.596;2023-09-08T12:54:22;5.35;;;4.30;;
62880;SDS011;48969;49.934;8.596;2023-09-08T12:56:47;6.18;;;4.20;;
62880;SDS011;48969;49.934;8.596;2023-09-08T12:59:12;5.72;;;4.10;;
62880;SDS011;48969;49.934;8.596;2023-09-08T13:01:37;5.63;;;4.40;;
62880;SDS011;48969;49.934;8.596;2023-09-08T13:04:03;4.82;;;4.13;;
62880;SDS011;48969;49.934;8.596;2023-09-08T13:06:28;5.47;;;4.50;;
62880;SDS011;48969;49.934;8.596;2023-09-08T13:08:54;5.07;;;4.15;;
62880;SDS011;48969;49.934;8.596;2023-09-08T13:11:19;6.40;;;4.50;;
62880;SDS011;48969;49.934;8.596;2023-09-08T13:13:44;6.40;;;4.22;;
62880;SDS011;48969;49.934;8.596;2023-09-08T13:16:09;5.68;;;4.30;;
62880;SDS011;48969;49.934;8.596;2023-09-08T13:18:35;6.68;;;4.72;;
62880;SDS011;48969;49.934;8.596;2023-09-08T13:21:03;5.93;;;3.78;;
62880;SDS011;48969;49.934;8.596;2023-09-08T13:23:29;5.55;;;4.72;;
62880;SDS011;48969;49.934;8.596;2023-09-08T13:25:54;5.35;;;4.10;;
62880;SDS011;48969;49.934;8.596;2023-09-08T13:28:19;5.57;;;4.32;;
62880;SDS011;48969;49.934;8.596;2023-09-08T13:30:44;5.40;;;4.20;;
62880;SDS011;48969;49.934;8.596;2023-09-08T13:33:10;5.15;;;4.18;;
62880;SDS011;48969;49.934;8.596;2023-09-08T13:35:35;4.65;;;4.15;;
62880;SDS011;48969;49.934;8.596;2023-09-08T13:38:01;5.90;;;4.20;;
62880;SDS011;48969;49.934;8.596;2023-09-08T13:40:28;5.97;;;4.32;;
62880;SDS011;48969;49.934;8.596;2023-09-08T13:42:53;4.97;;;4.15;;
62880;SDS011;48969;49.934;8.596;2023-09-08T13:45:18;5.32;;;4.35;;
62880;SDS011;48969;49.934;8.596;2023-09-08T13:47:44;8.45;;;4.70;;
62880;SDS011;48969;49.934;8.596;2023-09-08T13:50:09;6.63;;;4.80;;
62880;SDS011;48969;49.934;8.596;2023-09-08T13:52:34;6.63;;;4.57;;
62880;SDS011;48969;49.934;8.596;2023-09-08T13:55:00;5.93;;;4.40;;
62880;SDS011;48969;49.934;8.596;2023-09-08T13:57:25;4.57;;;4.07;;
62880;SDS011;48969;49.934;8.596;2023-09-08T13:59:51;5.07;;;3.97;;
62880;SDS011;48969;49.934;8.596;2023-09-08T14:02:19;5.68;;;4.75;;
62880;SDS011;48969;49.934;8.596;2023-09-08T14:04:44;4.13;;;3.72;;
62880;SDS011;48969;49.934;8.596;2023-09-08T14:07:09;4.70;;;4.10;;
62880;SDS011;48969;49.934;8.596;2023-09-08T14:09:35;4.38;;;3.97;;
62880;SDS011;48969;49.934;8.596;2023-09-08T14:12:01;5.13;;;4.18;;
62880;SDS011;48969;49.934;8.596;2023-09-08T14:14:26;5.72;;;4.22;;
62880;SDS011;48969;49.934;8.596;2023-09-08T14:16:52;5.13;;;4.43;;
62880;SDS011;48969;49.934;8.596;2023-09-08T14:19:17;5.63;;;4.35;;
62880;SDS011;48969;49.934;8.596;2023-09-08T14:21:42;5.63;;;4.20;;
62880;SDS011;48969;49.934;8.596;2023-09-08T14:24:08;5.53;;;4.45;;
62880;SDS011;48969;49.934;8.596;2023-09-08T14:26:33;4.82;;;3.85;;
62880;SDS011;48969;49.934;8.596;2023-09-08T14:29:00;5.38;;;4.28;;
62880;SDS011;48969;49.934;8.596;2023-09-08T14:31:25;4.40;;;4.00;;
62880;SDS011;48969;49.934;8.596;2023-09-08T14:33:50;7.10;;;4.60;;
62880;SDS011;48969;49.934;8.596;2023-09-08T14:36:19;4.07;;;3.67;;
62880;SDS011;48969;49.934;8.596;2023-09-08T14:38:44;4.55;;;4.13;;
62880;SDS011;48969;49.934;8.596;2023-09-08T14:41:10;4.95;;;3.92;;
62880;SDS011;48969;49.934;8.596;2023-09-08T14:43:35;5.22;;;3.83;;
62880;SDS011;48969;49.934;8.596;2023-09-08T14:46:01;5.65;;;4.30;;
62880;SDS011;48969;49.934;8.596;2023-09-08T14:48:28;5.10;;;3.92;;
62880;SDS011;48969;49.934;8.596;2023-09-08T14:50:56;4.68;;;3.95;;
62880;SDS011;48969;49.934;8.596;2023-09-08T14:53:22;6.25;;;4.20;;
62880;SDS011;48969;49.934;8.596;2023-09-08T14:55:47;5.78;;;3.47;;
62880;SDS011;48969;49.934;8.596;2023-09-08T14:58:16;6.85;;;4.22;;